Terminal Aerodrome Forecast
Issued by NWS

Home | Current Version | Previous Version | Text Only | Print | Product List | Glossary On
Versions: 1 2 3 4 5 6 7 8 9 10 11 12
325
FTUS42 TJSJ 280520
TAFNCM
TAF
TNCM 280520Z 2806/2906 09005KT P6SM FEW020
     FM281300 09007KT P6SM FEW024
     FM282300 12005KT P6SM SCT019 SCT040=

USA.gov is the U.S. government's official web portal to all federal, state and local government web resources and services.